createdAt,value
2023-01-03T00:01:30.503Z,3.73
2023-01-03T00:03:58.507Z,3.27
2023-01-03T00:06:28.169Z,2.70
2023-01-03T00:08:56.935Z,3.30
2023-01-03T00:11:48.043Z,2.70
2023-01-03T00:14:20.596Z,3.10
2023-01-03T00:16:51.345Z,2.80
2023-01-03T00:19:18.177Z,2.87
2023-01-03T00:21:45.256Z,3.40
2023-01-03T00:24:12.184Z,3.47
2023-01-03T00:26:40.916Z,3.93
2023-01-03T00:29:09.206Z,3.83
2023-01-03T00:31:37.189Z,4.50
2023-01-03T00:34:04.645Z,4.20
2023-01-03T00:36:31.856Z,5.33
2023-01-03T00:38:58.738Z,5.33
2023-01-03T00:41:26.152Z,6.07
2023-01-03T00:43:53.240Z,5.73
2023-01-03T00:46:21.044Z,5.00
2023-01-03T00:48:47.883Z,4.53
2023-01-03T00:51:18.437Z,4.47
2023-01-03T00:53:47.552Z,4.63
2023-01-03T00:56:20.112Z,5.10
2023-01-03T00:58:47.832Z,5.17
2023-01-03T01:01:19.813Z,4.80
2023-01-03T01:03:53.828Z,5.53
2023-01-03T01:06:24.147Z,4.27
2023-01-03T01:08:53.244Z,5.57
2023-01-03T01:11:21.133Z,4.27
2023-01-03T01:13:49.141Z,5.27
2023-01-03T01:16:20.189Z,4.80
2023-01-03T01:18:49.703Z,4.90
2023-01-03T01:21:19.959Z,4.40
2023-01-03T01:23:46.927Z,4.77
2023-01-03T01:26:16.791Z,4.83
2023-01-03T01:28:43.591Z,5.47
2023-01-03T01:31:14.634Z,4.47
2023-01-03T01:33:41.640Z,4.80
2023-01-03T01:36:16.726Z,4.80
2023-01-03T01:38:44.895Z,3.90
2023-01-03T01:41:37.384Z,4.60
2023-01-03T01:44:23.007Z,4.87
2023-01-03T01:46:51.258Z,3.97
2023-01-03T01:49:26.050Z,4.20
2023-01-03T01:51:53.132Z,3.73
2023-01-03T01:54:20.290Z,3.10
2023-01-03T01:56:50.437Z,3.23
2023-01-03T01:59:17.464Z,2.87
2023-01-03T02:01:47.500Z,2.77
2023-01-03T02:04:21.282Z,2.53
2023-01-03T02:06:49.930Z,2.80
2023-01-03T02:09:16.981Z,2.90
2023-01-03T02:12:14.327Z,2.83
2023-01-03T02:14:41.087Z,3.07
2023-01-03T02:17:23.403Z,3.30
2023-01-03T02:20:02.508Z,3.17
2023-01-03T02:22:47.649Z,2.93
2023-01-03T02:25:48.496Z,3.47
2023-01-03T02:28:50.577Z,3.20
2023-01-03T02:31:37.398Z,2.37
2023-01-03T02:34:26.003Z,2.83
2023-01-03T02:37:06.339Z,2.53
2023-01-03T02:39:58.521Z,2.63
2023-01-03T02:42:57.853Z,2.77
2023-01-03T02:45:46.890Z,2.00
2023-01-03T02:48:18.847Z,2.23
2023-01-03T02:50:52.055Z,2.70
2023-01-03T02:53:27.810Z,2.13
2023-01-03T02:56:00.468Z,2.00
2023-01-03T02:58:31.610Z,1.90
2023-01-03T03:01:02.001Z,1.83
2023-01-03T03:03:33.513Z,2.10
2023-01-03T03:06:20.021Z,1.63
2023-01-03T03:08:49.115Z,1.30
2023-01-03T03:11:35.436Z,1.73
2023-01-03T03:14:25.580Z,1.50
2023-01-03T03:16:55.519Z,1.30
2023-01-03T03:19:52.553Z,2.30
2023-01-03T03:22:48.255Z,1.30
2023-01-03T03:25:36.156Z,1.30
2023-01-03T03:28:25.894Z,1.63
2023-01-03T03:30:59.178Z,1.30
2023-01-03T03:33:30.847Z,1.50
2023-01-03T03:36:03.944Z,0.97
2023-01-03T03:38:38.760Z,1.17
2023-01-03T03:41:45.424Z,1.00
2023-01-03T03:44:52.126Z,1.20
2023-01-03T03:47:27.558Z,1.20
2023-01-03T03:50:00.998Z,1.10
2023-01-03T03:52:31.822Z,1.70
2023-01-03T03:55:10.785Z,1.17
2023-01-03T03:57:47.036Z,1.17
2023-01-03T04:00:22.581Z,2.27
2023-01-03T04:02:50.170Z,1.40
2023-01-03T04:05:20.928Z,1.57
2023-01-03T04:07:47.860Z,1.43
2023-01-03T04:10:20.127Z,1.50
2023-01-03T04:12:48.494Z,1.40
2023-01-03T04:15:16.036Z,1.33
2023-01-03T04:17:43.071Z,1.83
2023-01-03T04:20:11.661Z,1.60
2023-01-03T04:22:38.643Z,1.97
2023-01-03T04:25:06.607Z,1.90
2023-01-03T04:27:34.134Z,1.90
2023-01-03T04:30:01.531Z,1.83
2023-01-03T04:32:28.515Z,2.33
2023-01-03T04:34:55.532Z,2.53
2023-01-03T04:37:22.370Z,2.20
2023-01-03T04:39:49.464Z,2.30
2023-01-03T04:42:34.649Z,2.40
2023-01-03T04:45:01.806Z,2.20
2023-01-03T04:47:28.590Z,2.47
2023-01-03T04:49:55.696Z,2.70
2023-01-03T04:52:22.436Z,2.50
2023-01-03T04:54:49.436Z,2.60
2023-01-03T04:57:16.233Z,2.20
2023-01-03T04:59:43.199Z,2.27
2023-01-03T05:02:10.232Z,2.17
2023-01-03T05:04:37.432Z,2.07
2023-01-03T05:07:04.372Z,2.50
2023-01-03T05:09:31.415Z,2.47
2023-01-03T05:11:58.196Z,2.17
2023-01-03T05:14:25.189Z,2.13
2023-01-03T05:16:51.964Z,2.47
2023-01-03T05:19:20.156Z,2.73
2023-01-03T05:22:05.515Z,2.50
2023-01-03T05:24:51.210Z,2.10
2023-01-03T05:27:18.189Z,2.87
2023-01-03T05:29:49.179Z,2.33
2023-01-03T05:32:16.086Z,2.37
2023-01-03T05:34:43.115Z,2.40
2023-01-03T05:37:09.923Z,2.57
2023-01-03T05:39:37.036Z,2.03
2023-01-03T05:42:04.147Z,2.90
2023-01-03T05:44:34.585Z,2.67
2023-01-03T05:47:03.588Z,1.97
2023-01-03T05:49:30.598Z,2.43
2023-01-03T05:51:57.448Z,2.50
2023-01-03T05:54:24.703Z,2.80
2023-01-03T05:56:51.661Z,2.63
2023-01-03T05:59:19.838Z,2.73
2023-01-03T06:01:46.759Z,3.30
2023-01-03T06:04:13.992Z,3.27
2023-01-03T06:06:40.854Z,2.97
2023-01-03T06:09:07.884Z,3.73
2023-01-03T06:11:34.815Z,3.93
2023-01-03T06:14:03.514Z,3.90
2023-01-03T06:16:48.697Z,3.60
2023-01-03T06:19:15.823Z,4.07
2023-01-03T06:21:42.646Z,3.57
2023-01-03T06:24:09.941Z,3.70
2023-01-03T06:26:37.456Z,3.50
2023-01-03T06:29:05.709Z,3.57
2023-01-03T06:31:32.779Z,3.80
2023-01-03T06:33:59.826Z,3.73
2023-01-03T06:36:26.899Z,3.43
2023-01-03T06:38:54.217Z,2.97
2023-01-03T06:41:21.020Z,3.37
2023-01-03T06:43:48.100Z,3.70
2023-01-03T06:46:34.187Z,3.17
2023-01-03T06:49:20.573Z,3.30
2023-01-03T06:52:07.213Z,3.43
2023-01-03T06:54:37.220Z,3.43
2023-01-03T06:57:04.863Z,3.00
2023-01-03T06:59:32.531Z,3.90
2023-01-03T07:01:59.501Z,3.37
2023-01-03T07:04:27.361Z,3.43
2023-01-03T07:06:55.004Z,4.20
2023-01-03T07:09:22.286Z,3.83
2023-01-03T07:11:49.061Z,3.87
2023-01-03T07:14:17.388Z,4.07
2023-01-03T07:16:47.167Z,3.63
2023-01-03T07:19:23.477Z,4.57
2023-01-03T07:21:50.191Z,4.63
2023-01-03T07:24:20.066Z,5.97
2023-01-03T07:26:46.933Z,4.27
2023-01-03T07:29:14.183Z,4.10
2023-01-03T07:31:41.515Z,4.13
2023-01-03T07:34:09.752Z,2.97
2023-01-03T07:36:36.973Z,3.87
2023-01-03T07:39:04.206Z,3.07
2023-01-03T07:41:49.744Z,3.40
2023-01-03T07:44:19.064Z,2.60
2023-01-03T07:46:45.980Z,2.70
2023-01-03T07:49:13.135Z,2.43
2023-01-03T07:51:40.073Z,2.33
2023-01-03T07:54:07.868Z,2.53
2023-01-03T07:56:35.082Z,2.47
2023-01-03T07:59:02.545Z,2.20
2023-01-03T08:01:30.539Z,2.10
2023-01-03T08:03:57.968Z,2.83
2023-01-03T08:06:24.994Z,2.53
2023-01-03T08:09:11.297Z,2.43
2023-01-03T08:11:57.099Z,2.23
2023-01-03T08:14:26.823Z,2.17
2023-01-03T08:16:55.022Z,2.23
2023-01-03T08:19:23.411Z,2.63
2023-01-03T08:21:50.188Z,2.00
2023-01-03T08:24:17.273Z,2.37
2023-01-03T08:26:44.058Z,2.70
2023-01-03T08:29:11.173Z,2.40
2023-01-03T08:31:43.650Z,2.20
2023-01-03T08:34:18.399Z,2.85
2023-01-03T08:36:51.929Z,2.63
2023-01-03T08:39:26.964Z,2.22
2023-01-03T08:42:04.333Z,2.85
2023-01-03T08:44:31.834Z,2.85
2023-01-03T08:47:02.765Z,2.90
2023-01-03T08:49:30.911Z,2.45
2023-01-03T08:51:57.777Z,2.22
2023-01-03T08:54:24.819Z,2.25
2023-01-03T08:56:51.545Z,2.10
2023-01-03T08:59:18.550Z,1.80
2023-01-03T09:01:45.588Z,1.73
2023-01-03T09:04:12.799Z,2.08
2023-01-03T09:06:39.631Z,1.52
2023-01-03T09:09:08.178Z,2.22
2023-01-03T09:11:35.050Z,1.63
2023-01-03T09:14:02.595Z,2.03
2023-01-03T09:16:29.493Z,1.60
2023-01-03T09:18:56.602Z,1.88
2023-01-03T09:21:23.454Z,1.80
2023-01-03T09:23:51.386Z,1.70
2023-01-03T09:26:18.154Z,1.83
2023-01-03T09:28:45.219Z,1.98
2023-01-03T09:31:12.079Z,1.65
2023-01-03T09:33:39.139Z,1.63
2023-01-03T09:36:06.349Z,1.88
2023-01-03T09:38:33.409Z,1.92
2023-01-03T09:41:16.864Z,1.98
2023-01-03T09:43:47.470Z,1.63
2023-01-03T09:46:21.653Z,2.10
2023-01-03T09:48:50.796Z,1.98
2023-01-03T09:51:48.129Z,2.20
2023-01-03T09:54:44.941Z,1.70
2023-01-03T09:57:52.879Z,3.10
2023-01-03T10:01:08.228Z,2.80
2023-01-03T10:04:06.520Z,2.20
2023-01-03T10:06:55.264Z,2.13
2023-01-03T10:09:46.141Z,2.28
2023-01-03T10:12:38.315Z,3.20
2023-01-03T10:15:18.855Z,3.47
2023-01-03T10:17:57.497Z,3.63
2023-01-03T10:20:56.242Z,1.88
2023-01-03T10:23:23.564Z,1.88
2023-01-03T10:25:51.447Z,2.00
2023-01-03T10:28:25.353Z,2.57
2023-01-03T10:30:59.622Z,2.03
2023-01-03T10:33:45.624Z,2.77
2023-01-03T10:36:14.175Z,2.20
2023-01-03T10:38:48.014Z,2.27
2023-01-03T10:41:42.173Z,2.70
2023-01-03T10:44:30.439Z,2.10
2023-01-03T10:47:09.222Z,2.30
2023-01-03T10:49:36.648Z,2.00
2023-01-03T10:52:16.699Z,2.23
2023-01-03T10:54:43.831Z,1.57
2023-01-03T10:57:48.979Z,1.93
2023-01-03T11:00:37.796Z,1.50
2023-01-03T11:03:16.530Z,1.80
2023-01-03T11:05:48.168Z,1.60
2023-01-03T11:08:24.208Z,2.17
2023-01-03T11:10:56.335Z,1.97
2023-01-03T11:13:39.708Z,2.00
2023-01-03T11:16:15.608Z,1.90
2023-01-03T11:19:01.113Z,2.08
2023-01-03T11:21:39.372Z,2.08
2023-01-03T11:24:24.785Z,2.08
2023-01-03T11:27:10.267Z,1.60
2023-01-03T11:29:52.010Z,1.77
2023-01-03T11:32:56.454Z,1.25
2023-01-03T11:35:51.489Z,1.60
2023-01-03T11:39:03.544Z,1.27
2023-01-03T11:41:52.929Z,1.55
2023-01-03T11:44:32.262Z,1.38
2023-01-03T11:47:15.203Z,2.55
2023-01-03T11:49:45.198Z,2.78
2023-01-03T11:52:29.430Z,1.70
2023-01-03T11:55:21.700Z,2.63
2023-01-03T11:58:11.543Z,2.53
2023-01-03T12:01:04.079Z,2.28
2023-01-03T12:03:48.810Z,1.67
2023-01-03T12:06:38.055Z,1.77
2023-01-03T12:09:30.886Z,2.42
2023-01-03T12:12:13.195Z,2.13
2023-01-03T12:14:54.049Z,2.10
2023-01-03T12:17:33.846Z,1.85
2023-01-03T12:20:09.849Z,2.88
2023-01-03T12:22:46.010Z,2.08
2023-01-03T12:25:30.846Z,2.38
2023-01-03T12:28:00.594Z,2.63
2023-01-03T12:30:49.141Z,2.28
2023-01-03T12:33:57.974Z,2.60
2023-01-03T12:36:36.856Z,3.08
2023-01-03T12:39:03.858Z,2.78
2023-01-03T12:41:38.555Z,2.80
2023-01-03T12:44:30.283Z,2.33
2023-01-03T12:46:57.735Z,3.13
2023-01-03T12:49:48.213Z,2.35
2023-01-03T12:52:18.357Z,1.77
2023-01-03T12:55:08.490Z,2.20
2023-01-03T12:57:35.701Z,2.70
2023-01-03T13:00:26.503Z,2.35
2023-01-03T13:03:06.546Z,2.70
2023-01-03T13:05:44.757Z,2.38
2023-01-03T13:08:28.542Z,2.03
2023-01-03T13:11:03.071Z,3.80
2023-01-03T13:13:30.530Z,3.20
2023-01-03T13:15:57.672Z,4.23
2023-01-03T13:18:24.420Z,3.93
2023-01-03T13:20:53.267Z,3.87
2023-01-03T13:23:31.216Z,3.47
2023-01-03T13:26:07.054Z,4.77
2023-01-03T13:28:37.826Z,3.73
2023-01-03T13:31:14.389Z,4.20
2023-01-03T13:34:09.831Z,3.90
2023-01-03T13:37:16.417Z,3.67
2023-01-03T13:39:43.417Z,3.83
2023-01-03T13:42:40.340Z,2.40
2023-01-03T13:45:16.084Z,1.80
2023-01-03T13:47:47.353Z,1.50
2023-01-03T13:50:34.097Z,1.83
2023-01-03T13:53:26.113Z,1.83
2023-01-03T13:56:21.415Z,2.00
2023-01-03T13:58:54.944Z,1.97
2023-01-03T14:01:47.888Z,2.57
2023-01-03T14:04:42.167Z,2.57
2023-01-03T14:07:33.035Z,2.37
2023-01-03T14:10:30.812Z,2.30
2023-01-03T14:13:26.138Z,2.60
2023-01-03T14:16:15.701Z,2.53
2023-01-03T14:18:50.467Z,2.33
2023-01-03T14:21:26.326Z,2.63
2023-01-03T14:24:00.693Z,2.10
2023-01-03T14:26:31.186Z,1.90
2023-01-03T14:28:58.305Z,1.90
2023-01-03T14:31:27.692Z,2.23
2023-01-03T14:34:00.738Z,2.07
2023-01-03T14:36:28.573Z,2.60
2023-01-03T14:38:58.274Z,2.27
2023-01-03T14:41:34.309Z,1.83
2023-01-03T14:44:11.116Z,3.17
2023-01-03T14:46:40.531Z,3.77
2023-01-03T14:49:20.269Z,5.23
2023-01-03T14:51:47.665Z,6.70
2023-01-03T14:54:18.327Z,5.17
2023-01-03T14:56:47.050Z,5.93
2023-01-03T14:59:23.132Z,6.70
2023-01-03T15:01:51.012Z,5.30
2023-01-03T15:04:19.396Z,2.90
2023-01-03T15:07:07.997Z,3.43
2023-01-03T15:09:38.171Z,2.40
2023-01-03T15:12:06.069Z,3.60
2023-01-03T15:14:36.085Z,3.33
2023-01-03T15:17:16.717Z,4.10
2023-01-03T15:19:50.985Z,4.53
2023-01-03T15:22:22.639Z,4.70
2023-01-03T15:24:58.587Z,3.53
2023-01-03T15:27:37.575Z,3.30
2023-01-03T15:30:20.773Z,2.90
2023-01-03T15:32:54.025Z,2.70
2023-01-03T15:35:44.260Z,2.70
2023-01-03T15:38:30.453Z,2.80
2023-01-03T15:40:57.731Z,3.23
2023-01-03T15:43:32.959Z,3.40
2023-01-03T15:46:08.990Z,2.90
2023-01-03T15:48:36.610Z,2.90
2023-01-03T15:51:05.240Z,2.73
2023-01-03T15:53:43.681Z,2.57
2023-01-03T15:56:19.147Z,2.80
2023-01-03T15:58:48.634Z,2.30
2023-01-03T16:01:16.213Z,2.87
2023-01-03T16:03:43.718Z,3.20
2023-01-03T16:06:10.522Z,2.97
2023-01-03T16:08:39.144Z,2.50
2023-01-03T16:11:15.642Z,3.47
2023-01-03T16:13:51.479Z,3.37
2023-01-03T16:16:24.405Z,3.30
2023-01-03T16:18:52.471Z,2.77
2023-01-03T16:21:19.796Z,3.40
2023-01-03T16:23:46.980Z,2.50
2023-01-03T16:26:15.338Z,3.00
2023-01-03T16:28:42.368Z,3.27
2023-01-03T16:31:19.260Z,3.07
2023-01-03T16:33:49.121Z,3.77
2023-01-03T16:36:37.428Z,3.73
2023-01-03T16:39:10.061Z,3.30
2023-01-03T16:41:36.838Z,4.00
2023-01-03T16:44:04.406Z,4.00
2023-01-03T16:46:31.369Z,3.97
2023-01-03T16:48:59.132Z,3.93
2023-01-03T16:51:29.233Z,3.73
2023-01-03T16:53:58.470Z,3.47
2023-01-03T16:56:26.027Z,3.47
2023-01-03T16:58:53.464Z,3.97
2023-01-03T17:01:20.713Z,4.27
2023-01-03T17:03:48.733Z,3.83
2023-01-03T17:06:35.033Z,4.30
2023-01-03T17:09:11.388Z,3.87
2023-01-03T17:11:38.211Z,3.97
2023-01-03T17:14:05.694Z,3.90
2023-01-03T17:16:34.010Z,4.40
2023-01-03T17:19:01.098Z,4.40
2023-01-03T17:21:31.000Z,3.97
2023-01-03T17:24:04.475Z,4.10
2023-01-03T17:26:33.931Z,4.67
2023-01-03T17:29:04.439Z,3.80
2023-01-03T17:31:31.665Z,3.80
2023-01-03T17:33:58.964Z,3.67
2023-01-03T17:36:29.311Z,3.43
2023-01-03T17:39:00.018Z,3.90
2023-01-03T17:41:27.379Z,4.00
2023-01-03T17:43:54.952Z,4.07
2023-01-03T17:46:43.148Z,4.53
2023-01-03T17:49:26.213Z,5.07
2023-01-03T17:51:57.067Z,3.80
2023-01-03T17:54:44.462Z,4.47
2023-01-03T17:57:13.082Z,4.53
2023-01-03T17:59:40.243Z,4.03
2023-01-03T18:02:18.396Z,3.80
2023-01-03T18:05:14.207Z,4.30
2023-01-03T18:07:34.425Z,4.20
2023-01-03T18:10:01.704Z,3.80
2023-01-03T18:12:28.566Z,4.03
2023-01-03T18:14:55.696Z,4.17
2023-01-03T18:17:29.161Z,3.87
2023-01-03T18:19:57.661Z,4.63
2023-01-03T18:22:25.207Z,4.53
2023-01-03T18:24:53.457Z,3.90
2023-01-03T18:27:26.031Z,4.13
2023-01-03T18:29:53.329Z,4.60
2023-01-03T18:32:31.744Z,4.80
2023-01-03T18:34:59.432Z,4.13
2023-01-03T18:37:36.073Z,3.83
2023-01-03T18:40:06.982Z,4.20
2023-01-03T18:42:53.885Z,3.80
2023-01-03T18:45:21.076Z,4.20
2023-01-03T18:47:47.876Z,4.77
2023-01-03T18:50:19.318Z,4.67
2023-01-03T18:52:47.734Z,4.43
2023-01-03T18:55:18.803Z,4.00
2023-01-03T18:57:46.358Z,4.70
2023-01-03T19:00:25.217Z,4.43
2023-01-03T19:02:53.062Z,4.60
2023-01-03T19:05:20.633Z,4.63
2023-01-03T19:07:50.359Z,4.83
2023-01-03T19:10:23.703Z,4.57
2023-01-03T19:12:53.251Z,5.07
2023-01-03T19:15:25.504Z,7.27
2023-01-03T19:17:52.524Z,6.60
2023-01-03T19:20:26.331Z,6.57
2023-01-03T19:22:54.968Z,5.50
2023-01-03T19:25:29.680Z,5.10
2023-01-03T19:27:59.061Z,4.37
2023-01-03T19:30:37.527Z,4.60
2023-01-03T19:33:06.492Z,4.97
2023-01-03T19:35:33.585Z,4.47
2023-01-03T19:38:00.283Z,5.00
2023-01-03T19:40:30.770Z,5.37
2023-01-03T19:42:59.489Z,5.00
2023-01-03T19:45:33.001Z,4.83
2023-01-03T19:48:03.183Z,5.47
2023-01-03T19:50:33.555Z,4.70
2023-01-03T19:53:03.774Z,4.53
2023-01-03T19:55:33.382Z,4.97
2023-01-03T19:58:03.549Z,4.60
2023-01-03T20:00:32.424Z,5.47
2023-01-03T20:03:03.344Z,5.20
2023-01-03T20:05:36.784Z,5.53
2023-01-03T20:08:12.073Z,5.40
2023-01-03T20:10:43.083Z,4.80
2023-01-03T20:13:19.820Z,4.70
2023-01-03T20:15:49.200Z,5.33
2023-01-03T20:18:36.642Z,5.17
2023-01-03T20:21:10.077Z,4.90
2023-01-03T20:23:40.431Z,5.30
2023-01-03T20:26:19.217Z,4.83
2023-01-03T20:28:46.137Z,4.90
2023-01-03T20:31:19.960Z,5.47
2023-01-03T20:33:48.087Z,4.10
2023-01-03T20:36:23.208Z,4.20
2023-01-03T20:38:53.112Z,4.97
2023-01-03T20:41:20.562Z,4.20
2023-01-03T20:43:50.052Z,4.13
2023-01-03T20:46:21.137Z,4.60
2023-01-03T20:48:55.926Z,4.60
2023-01-03T20:51:24.534Z,4.70
2023-01-03T20:53:54.942Z,4.70
2023-01-03T20:56:23.562Z,4.30
2023-01-03T20:58:50.347Z,4.30
2023-01-03T21:01:17.563Z,4.87
2023-01-03T21:03:44.507Z,5.00
2023-01-03T21:06:23.235Z,4.27
2023-01-03T21:08:56.772Z,4.50
2023-01-03T21:11:32.021Z,5.93
2023-01-03T21:14:00.621Z,5.40
2023-01-03T21:16:46.353Z,6.93
2023-01-03T21:19:22.726Z,7.00
2023-01-03T21:21:54.674Z,7.23
2023-01-03T21:24:22.860Z,8.00
2023-01-03T21:26:49.969Z,5.53
2023-01-03T21:29:17.123Z,6.67
2023-01-03T21:31:44.372Z,5.17
2023-01-03T21:34:19.821Z,5.20
2023-01-03T21:36:47.333Z,4.80
2023-01-03T21:39:14.635Z,5.50
2023-01-03T21:42:19.944Z,4.77
2023-01-03T21:44:46.663Z,5.30
2023-01-03T21:47:13.698Z,4.80
2023-01-03T21:49:40.635Z,4.80
2023-01-03T21:52:07.693Z,5.40
2023-01-03T21:54:34.442Z,5.17
2023-01-03T21:57:01.512Z,4.90
2023-01-03T21:59:30.703Z,6.43
2023-01-03T22:02:16.118Z,8.27
2023-01-03T22:04:42.903Z,9.13
2023-01-03T22:07:09.916Z,9.63
2023-01-03T22:09:55.342Z,10.53
2023-01-03T22:12:22.443Z,11.07
2023-01-03T22:14:49.269Z,8.10
2023-01-03T22:17:16.685Z,8.17
2023-01-03T22:19:43.545Z,9.00
2023-01-03T22:22:10.720Z,7.10
2023-01-03T22:24:37.583Z,7.53
2023-01-03T22:27:04.591Z,6.73
2023-01-03T22:29:31.424Z,7.93
2023-01-03T22:31:58.524Z,8.77
2023-01-03T22:34:25.427Z,8.07
2023-01-03T22:36:52.461Z,9.23
2023-01-03T22:39:19.194Z,8.87
2023-01-03T22:41:46.206Z,8.00
2023-01-03T22:44:13.034Z,8.63
2023-01-03T22:46:40.066Z,6.67
2023-01-03T22:49:06.872Z,8.00
2023-01-03T22:51:33.860Z,8.73
2023-01-03T22:54:00.763Z,9.97
2023-01-03T22:56:27.825Z,8.87
2023-01-03T22:58:54.658Z,8.07
2023-01-03T23:01:27.499Z,8.37
2023-01-03T23:03:59.790Z,7.97
2023-01-03T23:06:29.347Z,7.23
2023-01-03T23:08:56.477Z,7.10
2023-01-03T23:11:45.057Z,7.30
2023-01-03T23:14:14.281Z,7.10
2023-01-03T23:16:41.945Z,8.23
2023-01-03T23:19:12.820Z,7.33
2023-01-03T23:21:40.392Z,8.23
2023-01-03T23:24:11.721Z,8.77
2023-01-03T23:26:38.825Z,7.67
2023-01-03T23:29:05.663Z,8.43
2023-01-03T23:31:32.743Z,9.60
2023-01-03T23:34:00.139Z,9.50
2023-01-03T23:36:28.364Z,9.80
2023-01-03T23:38:55.822Z,10.07
2023-01-03T23:41:22.908Z,9.27
2023-01-03T23:43:50.013Z,9.00
2023-01-03T23:46:19.718Z,9.53
2023-01-03T23:48:47.219Z,10.17
2023-01-03T23:51:14.405Z,10.07
2023-01-03T23:53:43.231Z,11.37
2023-01-03T23:56:13.388Z,11.70
2023-01-03T23:58:40.530Z,11.93
